createdAt,value
2019-04-28T00:00:48.890Z,3.40
2019-04-28T00:01:48.879Z,3.60
2019-04-28T00:02:50.664Z,3.20
2019-04-28T00:03:48.855Z,3.40
2019-04-28T00:04:48.845Z,3.40
2019-04-28T00:05:48.834Z,3.60
2019-04-28T00:06:48.826Z,3.20
2019-04-28T00:07:50.558Z,3.90
2019-04-28T00:08:48.821Z,3.40
2019-04-28T00:09:48.796Z,3.90
2019-04-28T00:10:48.780Z,3.60
2019-04-28T00:11:48.770Z,3.50
2019-04-28T00:12:48.758Z,3.40
2019-04-28T00:13:48.773Z,3.10
2019-04-28T00:14:48.739Z,4.00
2019-04-28T00:15:48.730Z,3.50
2019-04-28T00:16:48.714Z,3.00
2019-04-28T00:17:48.707Z,3.70
2019-04-28T00:18:48.715Z,3.20
2019-04-28T00:19:48.692Z,3.10
2019-04-28T00:20:48.676Z,3.40
2019-04-28T00:21:48.663Z,3.30
2019-04-28T00:22:48.650Z,3.00
2019-04-28T00:23:48.641Z,3.00
2019-04-28T00:24:48.648Z,3.40
2019-04-28T00:25:48.619Z,3.00
2019-04-28T00:26:48.608Z,3.40
2019-04-28T00:27:48.598Z,3.10
2019-04-28T00:28:48.588Z,4.20
2019-04-28T00:29:48.605Z,3.20
2019-04-28T00:30:48.565Z,3.30
2019-04-28T00:31:48.554Z,3.50
2019-04-28T00:32:48.549Z,3.40
2019-04-28T00:33:48.537Z,3.40
2019-04-28T00:34:48.541Z,3.30
2019-04-28T00:35:48.509Z,3.50
2019-04-28T00:36:48.498Z,3.50
2019-04-28T00:37:48.488Z,3.30
2019-04-28T00:38:48.493Z,2.90
2019-04-28T00:39:48.488Z,3.70
2019-04-28T00:40:48.457Z,3.00
2019-04-28T00:41:48.446Z,3.40
2019-04-28T00:42:48.444Z,3.90
2019-04-28T00:43:48.426Z,3.50
2019-04-28T00:44:48.436Z,2.80
2019-04-28T00:45:48.403Z,3.00
2019-04-28T00:46:48.391Z,3.20
2019-04-28T00:47:48.388Z,3.20
2019-04-28T00:48:48.368Z,3.60
2019-04-28T00:49:48.403Z,2.90
2019-04-28T00:50:48.368Z,3.20
2019-04-28T00:51:48.337Z,3.20
2019-04-28T00:52:48.326Z,3.10
2019-04-28T00:53:48.314Z,3.40
2019-04-28T00:54:48.305Z,3.50
2019-04-28T00:55:48.313Z,3.00
2019-04-28T00:56:48.290Z,3.30
2019-04-28T00:57:48.279Z,3.10
2019-04-28T00:58:48.261Z,3.00
2019-04-28T00:59:57.196Z,3.10
2019-04-28T01:00:51.269Z,3.30
2019-04-28T01:01:48.244Z,3.10
2019-04-28T01:02:48.225Z,3.00
2019-04-28T01:03:48.211Z,3.00
2019-04-28T01:04:48.196Z,3.30
2019-04-28T01:05:48.205Z,2.90
2019-04-28T01:06:48.185Z,2.90
2019-04-28T01:07:48.168Z,3.10
2019-04-28T01:08:48.152Z,2.90
2019-04-28T01:09:48.147Z,3.00
2019-04-28T01:10:48.154Z,3.40
2019-04-28T01:11:48.122Z,3.00
2019-04-28T01:12:48.111Z,3.40
2019-04-28T01:13:48.100Z,2.70
2019-04-28T01:14:49.741Z,3.40
2019-04-28T01:15:49.638Z,3.30
2019-04-28T01:16:49.788Z,3.20
2019-04-28T01:17:49.696Z,3.30
2019-04-28T01:18:48.055Z,3.40
2019-04-28T01:19:49.864Z,3.10
2019-04-28T01:20:49.569Z,2.80
2019-04-28T01:21:48.014Z,2.90
2019-04-28T01:22:49.651Z,3.40
2019-04-28T01:23:47.998Z,3.00
2019-04-28T01:24:49.676Z,3.30
2019-04-28T01:25:49.995Z,3.10
2019-04-28T01:26:47.960Z,3.60
2019-04-28T01:27:47.949Z,3.00
2019-04-28T01:28:49.623Z,3.40
2019-04-28T01:29:47.938Z,3.30
2019-04-28T01:30:49.945Z,2.80
2019-04-28T01:31:49.426Z,3.10
2019-04-28T01:32:49.773Z,3.00
2019-04-28T01:33:47.889Z,3.40
2019-04-28T01:34:49.815Z,3.30
2019-04-28T01:35:49.391Z,3.40
2019-04-28T01:36:49.572Z,3.50
2019-04-28T01:37:47.843Z,3.40
2019-04-28T01:38:47.832Z,3.30
2019-04-28T01:39:49.491Z,3.80
2019-04-28T01:40:47.829Z,3.20
2019-04-28T01:41:49.497Z,3.20
2019-04-28T01:42:49.453Z,3.00
2019-04-28T01:43:47.778Z,3.20
2019-04-28T01:44:49.389Z,3.30
2019-04-28T01:45:47.780Z,3.60
2019-04-28T01:46:49.502Z,3.40
2019-04-28T01:47:47.745Z,3.60
2019-04-28T01:48:49.438Z,3.20
2019-04-28T01:49:47.712Z,3.10
2019-04-28T01:50:47.702Z,3.00
2019-04-28T01:51:47.712Z,3.20
2019-04-28T01:52:47.683Z,3.10
2019-04-28T01:53:47.670Z,3.20
2019-04-28T01:54:47.658Z,3.10
2019-04-28T01:55:49.196Z,3.30
2019-04-28T01:56:47.664Z,3.40
2019-04-28T01:57:49.652Z,3.00
2019-04-28T01:58:47.616Z,3.70
2019-04-28T01:59:47.605Z,3.50
2019-04-28T02:00:47.600Z,3.30
2019-04-28T02:01:47.603Z,3.60
2019-04-28T02:02:47.573Z,3.30
2019-04-28T02:03:47.561Z,3.30
2019-04-28T02:04:47.551Z,3.20
2019-04-28T02:05:47.551Z,3.70
2019-04-28T02:06:47.553Z,3.30
2019-04-28T02:07:47.519Z,3.00
2019-04-28T02:08:47.509Z,3.30
2019-04-28T02:09:49.029Z,3.30
2019-04-28T02:10:47.486Z,3.00
2019-04-28T02:11:49.650Z,3.60
2019-04-28T02:12:47.483Z,3.10
2019-04-28T02:13:47.453Z,3.30
2019-04-28T02:14:47.449Z,3.40
2019-04-28T02:15:47.434Z,3.30
2019-04-28T02:16:47.421Z,3.00
2019-04-28T02:17:47.432Z,3.10
2019-04-28T02:18:47.404Z,3.30
2019-04-28T02:19:47.391Z,2.60
2019-04-28T02:20:47.377Z,3.00
2019-04-28T02:21:47.369Z,3.10
2019-04-28T02:22:47.375Z,3.00
2019-04-28T02:23:47.354Z,2.90
2019-04-28T02:24:47.334Z,3.10
2019-04-28T02:25:47.324Z,2.90
2019-04-28T02:26:47.320Z,3.40
2019-04-28T02:27:47.358Z,3.20
2019-04-28T02:28:47.292Z,2.50
2019-04-28T02:29:47.282Z,3.60
2019-04-28T02:30:53.165Z,2.80
2019-04-28T02:31:50.888Z,3.20
2019-04-28T02:32:47.256Z,2.90
2019-04-28T02:33:47.256Z,3.20
2019-04-28T02:34:47.228Z,3.00
2019-04-28T02:35:47.218Z,2.50
2019-04-28T02:36:47.205Z,3.10
2019-04-28T02:37:47.225Z,3.00
2019-04-28T02:38:47.190Z,3.10
2019-04-28T02:39:47.178Z,2.90
2019-04-28T02:40:47.166Z,2.70
2019-04-28T02:41:47.181Z,3.20
2019-04-28T02:42:47.184Z,2.80
2019-04-28T02:43:47.132Z,3.70
2019-04-28T02:44:47.121Z,3.70
2019-04-28T02:45:47.112Z,3.20
2019-04-28T02:46:47.107Z,3.30
2019-04-28T02:47:47.088Z,2.90
2019-04-28T02:48:47.097Z,3.10
2019-04-28T02:49:47.076Z,3.70
2019-04-28T02:50:47.064Z,2.90
2019-04-28T02:51:47.046Z,3.10
2019-04-28T02:52:47.032Z,3.40
2019-04-28T02:53:47.043Z,3.20
2019-04-28T02:54:47.012Z,3.00
2019-04-28T02:55:47.016Z,2.40
2019-04-28T02:56:46.994Z,3.30
2019-04-28T02:57:46.984Z,3.60
2019-04-28T02:58:46.992Z,3.60
2019-04-28T02:59:46.961Z,3.20
2019-04-28T03:01:02.822Z,3.50
2019-04-28T03:01:50.796Z,3.50
2019-04-28T03:02:46.934Z,2.90
2019-04-28T03:03:46.938Z,3.00
2019-04-28T03:04:46.920Z,2.90
2019-04-28T03:05:46.895Z,3.50
2019-04-28T03:06:46.884Z,3.30
2019-04-28T03:07:46.872Z,3.20
2019-04-28T03:08:46.862Z,3.20
2019-04-28T03:09:46.878Z,3.00
2019-04-28T03:10:46.884Z,3.60
2019-04-28T03:11:46.829Z,3.10
2019-04-28T03:12:46.827Z,3.20
2019-04-28T03:13:46.809Z,3.40
2019-04-28T03:14:46.798Z,3.10
2019-04-28T03:15:46.814Z,3.30
2019-04-28T03:16:46.779Z,3.20
2019-04-28T03:17:46.773Z,2.90
2019-04-28T03:18:46.763Z,3.00
2019-04-28T03:19:46.743Z,3.20
2019-04-28T03:20:46.753Z,3.20
2019-04-28T03:21:46.721Z,3.30
2019-04-28T03:22:46.713Z,3.20
2019-04-28T03:23:46.705Z,2.90
2019-04-28T03:24:46.701Z,3.30
2019-04-28T03:25:46.699Z,3.10
2019-04-28T03:26:46.669Z,3.50
2019-04-28T03:27:46.659Z,3.30
2019-04-28T03:28:46.657Z,3.30
2019-04-28T03:29:46.645Z,2.80
2019-04-28T03:30:46.651Z,3.30
2019-04-28T03:32:13.946Z,2.80
2019-04-28T03:32:58.222Z,3.90
2019-04-28T03:33:50.390Z,3.20
2019-04-28T03:34:52.953Z,3.20
2019-04-28T03:35:47.608Z,3.30
2019-04-28T03:36:46.562Z,3.00
2019-04-28T03:37:46.548Z,3.10
2019-04-28T03:38:46.544Z,3.80
2019-04-28T03:39:46.531Z,3.60
2019-04-28T03:40:46.518Z,3.20
2019-04-28T03:41:46.532Z,3.60
2019-04-28T03:42:46.497Z,3.80
2019-04-28T03:43:46.496Z,3.50
2019-04-28T03:44:46.475Z,3.40
2019-04-28T03:45:46.475Z,3.50
2019-04-28T03:46:46.471Z,3.10
2019-04-28T03:47:46.444Z,3.20
2019-04-28T03:48:46.439Z,3.30
2019-04-28T03:49:46.421Z,4.20
2019-04-28T03:50:46.414Z,2.80
2019-04-28T03:51:46.425Z,3.00
2019-04-28T03:52:46.388Z,2.70
2019-04-28T03:53:46.375Z,3.20
2019-04-28T03:54:46.366Z,3.20
2019-04-28T03:55:46.368Z,3.20
2019-04-28T03:56:46.363Z,2.80
2019-04-28T03:57:46.336Z,3.40
2019-04-28T03:58:46.323Z,2.70
2019-04-28T03:59:46.314Z,2.70
2019-04-28T04:00:46.302Z,3.40
2019-04-28T04:01:56.631Z,3.40
2019-04-28T04:02:47.287Z,3.10
2019-04-28T04:03:46.270Z,2.80
2019-04-28T04:04:46.260Z,2.90
2019-04-28T04:05:46.250Z,2.60
2019-04-28T04:06:46.254Z,2.60
2019-04-28T04:07:46.225Z,3.20
2019-04-28T04:08:46.221Z,3.20
2019-04-28T04:09:46.206Z,3.10
2019-04-28T04:10:46.194Z,3.30
2019-04-28T04:11:46.202Z,3.20
2019-04-28T04:12:46.171Z,3.70
2019-04-28T04:13:46.188Z,3.30
2019-04-28T04:14:46.150Z,2.90
2019-04-28T04:15:50.740Z,2.40
2019-04-28T04:16:47.156Z,3.60
2019-04-28T04:17:46.123Z,2.90
2019-04-28T04:18:46.112Z,3.10
2019-04-28T04:19:46.102Z,2.80
2019-04-28T04:20:46.087Z,3.20
2019-04-28T04:21:46.084Z,3.10
2019-04-28T04:22:46.084Z,2.80
2019-04-28T04:23:46.054Z,2.80
2019-04-28T04:24:46.049Z,3.20
2019-04-28T04:25:46.036Z,3.30
2019-04-28T04:26:46.029Z,3.00
2019-04-28T04:27:46.040Z,2.70
2019-04-28T04:28:46.001Z,3.00
2019-04-28T04:29:45.993Z,3.10
2019-04-28T04:30:45.983Z,3.00
2019-04-28T04:31:45.973Z,2.90
2019-04-28T04:32:45.961Z,3.40
2019-04-28T04:33:45.965Z,2.70
2019-04-28T04:34:45.938Z,2.70
2019-04-28T04:35:45.924Z,2.60
2019-04-28T04:36:45.914Z,2.90
2019-04-28T04:37:45.909Z,3.10
2019-04-28T04:38:46.570Z,3.40
2019-04-28T04:39:45.884Z,3.10
2019-04-28T04:40:45.873Z,3.10
2019-04-28T04:41:45.867Z,2.60
2019-04-28T04:42:45.862Z,2.80
2019-04-28T04:43:45.858Z,2.70
2019-04-28T04:44:45.829Z,2.70
2019-04-28T04:45:45.818Z,2.80
2019-04-28T04:46:45.816Z,3.20
2019-04-28T04:47:45.812Z,3.00
2019-04-28T04:48:45.822Z,3.20
2019-04-28T04:49:45.774Z,2.80
2019-04-28T04:50:45.766Z,3.30
2019-04-28T04:51:45.752Z,2.80
2019-04-28T04:52:45.752Z,2.80
2019-04-28T04:53:45.735Z,2.90
2019-04-28T04:54:45.738Z,2.90
2019-04-28T04:55:45.712Z,3.20
2019-04-28T04:56:45.699Z,3.00
2019-04-28T04:57:45.689Z,3.10
2019-04-28T04:58:45.678Z,2.80
2019-04-28T04:59:45.688Z,3.00
2019-04-28T05:00:45.655Z,2.90
2019-04-28T05:01:45.645Z,3.20
2019-04-28T05:02:51.673Z,3.00
2019-04-28T05:03:46.623Z,3.30
2019-04-28T05:04:45.638Z,2.60
2019-04-28T05:05:45.601Z,3.20
2019-04-28T05:06:45.591Z,2.70
2019-04-28T05:07:45.582Z,3.40
2019-04-28T05:08:45.573Z,2.90
2019-04-28T05:09:45.582Z,2.60
2019-04-28T05:10:45.546Z,2.70
2019-04-28T05:11:45.537Z,2.90
2019-04-28T05:12:45.525Z,2.60
2019-04-28T05:13:45.521Z,2.50
2019-04-28T05:14:45.527Z,2.60
2019-04-28T05:15:45.494Z,3.10
2019-04-28T05:16:45.485Z,2.80
2019-04-28T05:17:45.474Z,2.30
2019-04-28T05:18:45.460Z,3.00
2019-04-28T05:19:45.461Z,2.90
2019-04-28T05:20:45.464Z,3.00
2019-04-28T05:21:45.429Z,2.40
2019-04-28T05:22:45.422Z,3.00
2019-04-28T05:23:45.408Z,2.70
2019-04-28T05:24:46.245Z,2.90
2019-04-28T05:25:46.404Z,2.60
2019-04-28T05:26:47.708Z,2.30
2019-04-28T05:27:45.365Z,3.20
2019-04-28T05:28:51.429Z,2.60
2019-04-28T05:29:46.345Z,2.30
2019-04-28T05:30:45.352Z,2.50
2019-04-28T05:31:45.331Z,3.20
2019-04-28T05:32:49.826Z,2.60
2019-04-28T05:33:46.299Z,2.80
2019-04-28T05:34:46.763Z,3.00
2019-04-28T05:35:45.301Z,2.80
2019-04-28T05:36:45.268Z,2.80
2019-04-28T05:37:45.263Z,3.10
2019-04-28T05:38:45.245Z,2.50
2019-04-28T05:39:45.234Z,3.10
2019-04-28T05:40:45.246Z,2.70
2019-04-28T05:41:45.215Z,3.40
2019-04-28T05:42:45.205Z,2.70
2019-04-28T05:43:45.192Z,2.80
2019-04-28T05:44:45.181Z,2.50
2019-04-28T05:45:45.192Z,3.00
2019-04-28T05:46:45.159Z,2.70
2019-04-28T05:47:45.149Z,2.50
2019-04-28T05:48:45.141Z,2.80
2019-04-28T05:49:45.129Z,2.70
2019-04-28T05:50:45.145Z,2.80
2019-04-28T05:51:45.106Z,2.70
2019-04-28T05:52:45.096Z,2.60
2019-04-28T05:53:45.084Z,2.90
2019-04-28T05:54:45.078Z,2.10
2019-04-28T05:55:45.104Z,2.90
2019-04-28T05:56:45.054Z,2.60
2019-04-28T05:57:45.042Z,2.80
2019-04-28T05:58:45.033Z,2.70
2019-04-28T05:59:45.023Z,2.50
2019-04-28T06:00:45.008Z,3.00
2019-04-28T06:01:45.019Z,3.00
2019-04-28T06:02:54.164Z,3.00
2019-04-28T06:03:45.983Z,2.90
2019-04-28T06:04:44.965Z,2.60
2019-04-28T06:05:44.955Z,3.00
2019-04-28T06:06:44.962Z,3.20
2019-04-28T06:07:44.933Z,2.90
2019-04-28T06:08:44.924Z,3.20
2019-04-28T06:09:44.914Z,3.00
2019-04-28T06:10:44.900Z,3.10
2019-04-28T06:11:44.912Z,2.60
2019-04-28T06:12:44.879Z,2.70
2019-04-28T06:13:44.881Z,2.90
2019-04-28T06:14:44.856Z,2.90
2019-04-28T06:15:44.847Z,3.00
2019-04-28T06:16:44.860Z,3.10
2019-04-28T06:17:44.825Z,3.10
2019-04-28T06:18:44.819Z,2.70
2019-04-28T06:19:44.804Z,2.60
2019-04-28T06:20:44.793Z,2.80
2019-04-28T06:21:44.784Z,2.80
2019-04-28T06:22:44.791Z,2.70
2019-04-28T06:23:44.816Z,2.80
2019-04-28T06:24:44.752Z,2.90
2019-04-28T06:25:44.741Z,3.10
2019-04-28T06:26:44.728Z,3.40
2019-04-28T06:27:44.738Z,2.80
2019-04-28T06:28:44.706Z,2.80
2019-04-28T06:29:44.700Z,2.60
2019-04-28T06:30:44.684Z,2.60
2019-04-28T06:31:44.720Z,2.90
2019-04-28T06:32:44.689Z,2.90
2019-04-28T06:33:44.702Z,3.10
2019-04-28T06:34:44.643Z,2.20
2019-04-28T06:35:44.631Z,2.40
2019-04-28T06:36:44.623Z,2.80
2019-04-28T06:37:44.674Z,2.50
2019-04-28T06:38:44.599Z,2.80
2019-04-28T06:39:47.206Z,2.10
2019-04-28T06:40:44.577Z,2.40
2019-04-28T06:41:44.568Z,2.30
2019-04-28T06:42:44.575Z,2.40
2019-04-28T06:43:44.548Z,2.50
2019-04-28T06:44:44.594Z,2.10
2019-04-28T06:45:44.529Z,2.90
2019-04-28T06:46:44.512Z,2.60
2019-04-28T06:47:44.525Z,2.80
2019-04-28T06:48:44.500Z,2.30
2019-04-28T06:49:44.482Z,2.20
2019-04-28T06:50:44.469Z,2.20
2019-04-28T06:51:44.479Z,2.40
2019-04-28T06:52:44.448Z,2.00
2019-04-28T06:53:44.442Z,1.90
2019-04-28T06:54:44.431Z,1.90
2019-04-28T06:55:44.416Z,2.30
2019-04-28T06:56:44.459Z,2.10
2019-04-28T06:57:44.397Z,2.70
2019-04-28T06:58:44.396Z,2.20
2019-04-28T06:59:44.378Z,2.20
2019-04-28T07:00:44.361Z,1.90
2019-04-28T07:01:45.242Z,2.20
2019-04-28T07:02:44.339Z,2.40
2019-04-28T07:03:44.335Z,2.10
2019-04-28T07:04:44.323Z,2.20
2019-04-28T07:05:44.419Z,2.20
2019-04-28T07:06:44.328Z,2.30
2019-04-28T07:07:44.286Z,2.00
2019-04-28T07:08:44.274Z,2.00
2019-04-28T07:09:44.264Z,2.20
2019-04-28T07:10:44.255Z,1.90
2019-04-28T07:11:44.266Z,2.30
2019-04-28T07:12:44.232Z,2.00
2019-04-28T07:13:44.308Z,2.00
2019-04-28T07:14:44.211Z,2.20
2019-04-28T07:15:44.199Z,2.00
2019-04-28T07:16:44.208Z,2.40
2019-04-28T07:17:44.190Z,2.40
2019-04-28T07:18:44.181Z,2.00
2019-04-28T07:19:44.156Z,2.20
2019-04-28T07:20:44.148Z,2.00
2019-04-28T07:21:44.157Z,2.30
2019-04-28T07:22:44.123Z,2.10
2019-04-28T07:23:44.119Z,2.30
2019-04-28T07:24:44.961Z,2.40
2019-04-28T07:25:44.092Z,2.60
2019-04-28T07:26:44.112Z,2.30
2019-04-28T07:27:44.103Z,2.20
2019-04-28T07:28:44.059Z,2.40
2019-04-28T07:29:44.049Z,2.50
2019-04-28T07:30:44.041Z,2.20
2019-04-28T07:31:44.026Z,2.50
2019-04-28T07:32:44.035Z,2.30
2019-04-28T07:33:44.006Z,2.10
2019-04-28T07:34:43.994Z,2.50
2019-04-28T07:35:44.000Z,2.30
2019-04-28T07:36:43.995Z,2.10
2019-04-28T07:37:43.965Z,2.00
2019-04-28T07:38:43.952Z,2.30
2019-04-28T07:39:43.950Z,2.60
2019-04-28T07:40:43.931Z,2.40
2019-04-28T07:41:43.940Z,2.40
2019-04-28T07:42:43.910Z,2.60
2019-04-28T07:43:43.898Z,2.80
2019-04-28T07:44:43.891Z,3.10
2019-04-28T07:45:43.877Z,2.30
2019-04-28T07:46:43.897Z,2.90
2019-04-28T07:47:43.858Z,2.60
2019-04-28T07:48:43.846Z,2.50
2019-04-28T07:49:43.835Z,2.60
2019-04-28T07:50:43.863Z,2.50
2019-04-28T07:51:43.815Z,2.70
2019-04-28T07:52:43.829Z,2.60
2019-04-28T07:53:43.794Z,2.50
2019-04-28T07:54:43.779Z,3.10
2019-04-28T07:55:43.767Z,3.00
2019-04-28T07:56:43.764Z,2.90
2019-04-28T07:57:43.766Z,2.40
2019-04-28T07:58:43.738Z,2.70
2019-04-28T07:59:43.726Z,2.90
2019-04-28T08:00:43.723Z,2.70
2019-04-28T08:01:43.707Z,2.80
2019-04-28T08:02:43.712Z,3.00
2019-04-28T08:03:49.550Z,2.70
2019-04-28T08:04:44.702Z,3.20
2019-04-28T08:05:43.674Z,3.00
2019-04-28T08:06:43.649Z,2.90
2019-04-28T08:07:43.667Z,2.60
2019-04-28T08:08:43.636Z,2.90
2019-04-28T08:09:43.625Z,3.50
2019-04-28T08:10:43.607Z,2.40
2019-04-28T08:11:43.600Z,2.20
2019-04-28T08:12:43.607Z,2.90
2019-04-28T08:13:43.578Z,3.00
2019-04-28T08:14:43.568Z,2.40
2019-04-28T08:15:43.556Z,2.80
2019-04-28T08:16:43.542Z,3.20
2019-04-28T08:17:43.554Z,3.10
2019-04-28T08:18:43.527Z,3.50
2019-04-28T08:19:43.510Z,3.40
2019-04-28T08:20:43.516Z,3.80
2019-04-28T08:21:43.490Z,3.60
2019-04-28T08:22:43.505Z,3.10
2019-04-28T08:23:47.272Z,3.70
2019-04-28T08:24:43.458Z,3.60
2019-04-28T08:25:43.450Z,3.80
2019-04-28T08:26:43.458Z,4.10
2019-04-28T08:27:43.438Z,4.00
2019-04-28T08:28:43.435Z,4.30
2019-04-28T08:29:43.405Z,4.30
2019-04-28T08:30:43.460Z,3.70
2019-04-28T08:31:43.386Z,4.00
2019-04-28T08:32:43.377Z,3.80
2019-04-28T08:33:43.383Z,4.50
2019-04-28T08:34:43.351Z,4.30
2019-04-28T08:35:43.344Z,4.30
2019-04-28T08:36:43.329Z,3.90
2019-04-28T08:37:43.321Z,4.40
2019-04-28T08:38:43.328Z,4.60
2019-04-28T08:39:43.296Z,4.80
2019-04-28T08:40:43.285Z,4.50
2019-04-28T08:41:43.276Z,4.40
2019-04-28T08:42:43.268Z,4.60
2019-04-28T08:43:43.281Z,4.00
2019-04-28T08:44:43.242Z,4.00
2019-04-28T08:45:43.232Z,3.50
2019-04-28T08:46:43.237Z,4.10
2019-04-28T08:47:43.209Z,4.00
2019-04-28T08:48:43.221Z,4.10
2019-04-28T08:49:43.191Z,3.80
2019-04-28T08:50:43.180Z,3.80
2019-04-28T08:51:43.167Z,3.90
2019-04-28T08:52:43.174Z,4.20
2019-04-28T08:53:43.148Z,3.70
2019-04-28T08:54:43.154Z,3.60
2019-04-28T08:55:43.124Z,3.70
2019-04-28T08:56:43.118Z,3.10
2019-04-28T08:57:43.106Z,3.20
2019-04-28T08:58:43.117Z,3.50
2019-04-28T08:59:43.084Z,2.70
2019-04-28T09:00:43.070Z,3.00
2019-04-28T09:01:43.068Z,2.90
2019-04-28T09:02:43.050Z,2.90
2019-04-28T09:03:43.039Z,3.10
2019-04-28T09:04:43.046Z,3.10
2019-04-28T09:05:43.018Z,3.10
2019-04-28T09:06:51.541Z,3.30
2019-04-28T09:07:43.004Z,2.90
2019-04-28T09:08:42.983Z,3.30
2019-04-28T09:09:43.002Z,2.60
2019-04-28T09:10:42.966Z,2.90
2019-04-28T09:11:42.974Z,3.10
2019-04-28T09:12:42.944Z,3.30
2019-04-28T09:13:44.060Z,3.00
2019-04-28T09:14:42.948Z,2.70
2019-04-28T09:15:42.918Z,2.90
2019-04-28T09:16:42.900Z,3.00
2019-04-28T09:17:42.888Z,2.80
2019-04-28T09:18:42.878Z,2.70
2019-04-28T09:19:42.913Z,2.70
2019-04-28T09:20:42.857Z,2.60
2019-04-28T09:21:42.846Z,2.70
2019-04-28T09:22:42.836Z,2.70
2019-04-28T09:23:42.825Z,3.20
2019-04-28T09:24:42.814Z,2.90
2019-04-28T09:25:42.826Z,2.90
2019-04-28T09:26:42.792Z,2.60
2019-04-28T09:27:42.784Z,2.20
2019-04-28T09:28:42.771Z,2.30
2019-04-28T09:29:42.768Z,2.30
2019-04-28T09:30:42.774Z,2.60
2019-04-28T09:31:42.738Z,2.60
2019-04-28T09:32:42.729Z,2.30
2019-04-28T09:33:42.723Z,2.10
2019-04-28T09:34:42.716Z,2.10
2019-04-28T09:35:42.719Z,2.40
2019-04-28T09:36:42.740Z,2.20
2019-04-28T09:37:42.677Z,2.80
2019-04-28T09:38:42.663Z,2.50
2019-04-28T09:39:42.658Z,2.50
2019-04-28T09:40:42.686Z,2.20
2019-04-28T09:41:42.632Z,2.40
2019-04-28T09:42:42.621Z,2.00
2019-04-28T09:43:42.611Z,2.20
2019-04-28T09:44:42.625Z,2.00
2019-04-28T09:45:42.589Z,2.30
2019-04-28T09:46:42.595Z,2.30
2019-04-28T09:47:42.577Z,2.20
2019-04-28T09:48:42.587Z,2.60
2019-04-28T09:49:42.546Z,2.30
2019-04-28T09:50:42.536Z,2.20
2019-04-28T09:51:42.563Z,1.90
2019-04-28T09:52:42.531Z,2.10
2019-04-28T09:53:42.502Z,2.00
2019-04-28T09:54:42.490Z,2.20
2019-04-28T09:55:42.479Z,2.10
2019-04-28T09:56:55.774Z,1.90
2019-04-28T09:57:43.467Z,2.20
2019-04-28T09:58:42.532Z,2.30
2019-04-28T09:59:42.437Z,2.10
2019-04-28T10:00:42.426Z,2.00
2019-04-28T10:01:42.441Z,1.90
2019-04-28T10:02:49.474Z,1.80
2019-04-28T10:03:42.395Z,2.10
2019-04-28T10:04:42.483Z,1.90
2019-04-28T10:05:42.434Z,2.30
2019-04-28T10:06:42.405Z,2.20
2019-04-28T10:07:42.356Z,2.00
2019-04-28T10:08:42.340Z,1.70
2019-04-28T10:09:42.338Z,1.80
2019-04-28T10:10:42.319Z,1.50
2019-04-28T10:11:42.310Z,1.50
2019-04-28T10:12:42.316Z,1.80
2019-04-28T10:13:42.290Z,1.50
2019-04-28T10:14:42.340Z,1.90
2019-04-28T10:15:42.266Z,1.90
2019-04-28T10:16:42.591Z,2.00
2019-04-28T10:17:42.503Z,2.30
2019-04-28T10:18:42.400Z,1.90
2019-04-28T10:19:42.225Z,2.00
2019-04-28T10:20:42.212Z,1.70
2019-04-28T10:21:42.203Z,1.90
2019-04-28T10:22:42.231Z,1.90
2019-04-28T10:23:42.185Z,1.70
2019-04-28T10:24:42.169Z,1.80
2019-04-28T10:25:42.159Z,1.90
2019-04-28T10:26:42.155Z,1.60
2019-04-28T10:27:42.137Z,1.90
2019-04-28T10:28:42.146Z,1.50
2019-04-28T10:29:42.116Z,1.70
2019-04-28T10:30:42.103Z,1.60
2019-04-28T10:31:42.106Z,1.60
2019-04-28T10:32:42.107Z,1.70
2019-04-28T10:33:42.073Z,1.90
2019-04-28T10:34:54.043Z,1.70
2019-04-28T10:35:43.054Z,1.90
2019-04-28T10:36:42.041Z,1.60
2019-04-28T10:37:42.050Z,1.80
2019-04-28T10:38:42.031Z,1.60
2019-04-28T10:39:42.008Z,1.70
2019-04-28T10:40:42.002Z,1.50
2019-04-28T10:41:41.990Z,1.80
2019-04-28T10:42:41.998Z,1.70
2019-04-28T10:43:41.966Z,1.90
2019-04-28T10:44:41.956Z,1.90
2019-04-28T10:45:41.945Z,1.70
2019-04-28T10:46:41.934Z,1.70
2019-04-28T10:47:41.943Z,1.90
2019-04-28T10:48:41.912Z,1.40
2019-04-28T10:49:41.932Z,1.50
2019-04-28T10:50:41.890Z,1.60
2019-04-28T10:51:41.882Z,1.50
2019-04-28T10:52:41.894Z,1.40
2019-04-28T10:53:41.862Z,1.30
2019-04-28T10:54:41.847Z,1.60
2019-04-28T10:55:41.838Z,1.20
2019-04-28T10:56:41.825Z,1.60
2019-04-28T10:57:41.816Z,1.20
2019-04-28T10:58:41.837Z,1.10
2019-04-28T10:59:41.792Z,1.10
2019-04-28T11:00:41.783Z,0.90
2019-04-28T11:01:41.772Z,0.70
2019-04-28T11:02:41.760Z,0.80
2019-04-28T11:03:41.770Z,0.80
2019-04-28T11:04:41.746Z,0.80
2019-04-28T11:05:41.728Z,1.00
2019-04-28T11:06:41.718Z,1.20
2019-04-28T11:07:41.714Z,1.00
2019-04-28T11:08:41.719Z,1.30
2019-04-28T11:09:41.684Z,1.10
2019-04-28T11:10:41.673Z,1.10
2019-04-28T11:11:41.664Z,1.10
2019-04-28T11:12:41.651Z,1.00
2019-04-28T11:13:41.678Z,0.80
2019-04-28T11:14:41.632Z,0.70
2019-04-28T11:15:41.621Z,0.70
2019-04-28T11:16:41.609Z,0.60
2019-04-28T11:17:41.606Z,0.50
2019-04-28T11:18:41.588Z,0.60
2019-04-28T11:19:41.595Z,0.50
2019-04-28T11:20:41.565Z,0.40
2019-04-28T11:21:41.562Z,0.50
2019-04-28T11:22:41.553Z,0.50
2019-04-28T11:23:41.533Z,0.50
2019-04-28T11:24:41.542Z,0.40
2019-04-28T11:25:41.512Z,0.50
2019-04-28T11:26:41.499Z,0.50
2019-04-28T11:27:41.494Z,0.40
2019-04-28T11:28:41.477Z,0.60
2019-04-28T11:29:41.487Z,0.50
2019-04-28T11:30:41.463Z,0.50
2019-04-28T11:31:41.458Z,0.40
2019-04-28T11:32:41.434Z,0.50
2019-04-28T11:33:41.425Z,1.00
2019-04-28T11:34:41.434Z,0.90
2019-04-28T11:35:41.405Z,1.10
2019-04-28T11:36:41.391Z,1.10
2019-04-28T11:37:41.381Z,0.80
2019-04-28T11:38:41.416Z,0.90
2019-04-28T11:39:41.387Z,1.10
2019-04-28T11:40:41.359Z,1.00
2019-04-28T11:41:41.343Z,1.20
2019-04-28T11:42:41.327Z,1.30
2019-04-28T11:43:41.319Z,1.30
2019-04-28T11:44:41.325Z,1.50
2019-04-28T11:45:41.373Z,1.40
2019-04-28T11:46:41.288Z,1.30
2019-04-28T11:47:41.280Z,1.30
2019-04-28T11:48:41.261Z,1.00
2019-04-28T11:49:41.270Z,1.00
2019-04-28T11:50:41.242Z,1.00
2019-04-28T11:51:41.229Z,1.00
2019-04-28T11:52:41.221Z,1.30
2019-04-28T11:53:41.207Z,1.10
2019-04-28T11:54:41.214Z,1.00
2019-04-28T11:55:41.191Z,1.10
2019-04-28T11:56:41.989Z,0.90
2019-04-28T11:57:41.167Z,0.90
2019-04-28T11:58:41.151Z,0.90
2019-04-28T11:59:41.161Z,0.90
2019-04-28T12:00:41.137Z,0.70
2019-04-28T12:01:41.119Z,0.80
2019-04-28T12:02:41.110Z,0.80
2019-04-28T12:03:41.098Z,1.10
2019-04-28T12:04:41.110Z,0.90
2019-04-28T12:05:41.082Z,1.10
2019-04-28T12:06:41.065Z,1.00
2019-04-28T12:07:41.053Z,0.80
2019-04-28T12:08:41.042Z,1.00
2019-04-28T12:09:41.061Z,0.80
2019-04-28T12:10:41.021Z,0.90
2019-04-28T12:11:41.009Z,0.70
2019-04-28T12:12:40.998Z,0.90
2019-04-28T12:13:40.996Z,0.70
2019-04-28T12:14:41.024Z,0.60
2019-04-28T12:15:40.970Z,0.60
2019-04-28T12:16:40.955Z,0.60
2019-04-28T12:17:40.943Z,0.50
2019-04-28T12:18:40.939Z,0.60
2019-04-28T12:19:40.922Z,0.60
2019-04-28T12:20:40.931Z,0.50
2019-04-28T12:21:40.904Z,0.60
2019-04-28T12:22:40.891Z,0.70
2019-04-28T12:23:40.881Z,0.70
2019-04-28T12:24:40.875Z,0.70
2019-04-28T12:25:40.875Z,0.70
2019-04-28T12:26:40.846Z,0.80
2019-04-28T12:27:40.838Z,0.80
2019-04-28T12:28:40.877Z,0.70
2019-04-28T12:29:40.812Z,0.70
2019-04-28T12:30:40.829Z,0.70
2019-04-28T12:31:40.791Z,0.90
2019-04-28T12:32:40.784Z,0.70
2019-04-28T12:33:40.768Z,0.60
2019-04-28T12:34:40.758Z,0.60
2019-04-28T12:35:47.623Z,0.80
2019-04-28T12:36:41.744Z,0.70
2019-04-28T12:37:40.728Z,0.60
2019-04-28T12:38:40.756Z,0.70
2019-04-28T12:39:40.704Z,0.70
2019-04-28T12:40:40.693Z,0.60
2019-04-28T12:41:40.716Z,0.60
2019-04-28T12:42:40.672Z,0.80
2019-04-28T12:43:40.693Z,0.70
2019-04-28T12:44:40.657Z,1.00
2019-04-28T12:45:40.638Z,0.70
2019-04-28T12:46:40.634Z,0.70
2019-04-28T12:47:40.624Z,0.70
2019-04-28T12:48:40.632Z,0.60
2019-04-28T12:49:40.596Z,0.70
2019-04-28T12:50:40.586Z,0.80
2019-04-28T12:51:40.573Z,0.70
2019-04-28T12:52:40.562Z,0.70
2019-04-28T12:53:40.551Z,0.60
2019-04-28T12:54:40.565Z,0.70
2019-04-28T12:55:40.534Z,0.70
2019-04-28T12:56:40.532Z,0.70
2019-04-28T12:57:40.507Z,0.70
2019-04-28T12:58:40.498Z,0.80
2019-04-28T12:59:40.519Z,0.70
2019-04-28T13:00:40.485Z,0.70
2019-04-28T13:01:40.464Z,0.70
2019-04-28T13:02:40.453Z,0.60
2019-04-28T13:03:40.444Z,0.70
2019-04-28T13:04:40.432Z,0.60
2019-04-28T13:05:40.448Z,0.70
2019-04-28T13:06:40.408Z,0.70
2019-04-28T13:07:40.401Z,0.50
2019-04-28T13:08:40.390Z,0.50
2019-04-28T13:09:40.382Z,0.60
2019-04-28T13:10:40.397Z,0.50
2019-04-28T13:11:40.354Z,0.60
2019-04-28T13:12:40.344Z,0.60
2019-04-28T13:13:40.335Z,0.60
2019-04-28T13:14:40.322Z,0.90
2019-04-28T13:15:40.313Z,0.50
2019-04-28T13:16:40.334Z,0.40
2019-04-28T13:17:40.290Z,0.40
2019-04-28T13:18:40.285Z,0.40